Time;durP1;ratioP1;P1;durP2;ratioP2;P2;SDS_P1;SDS_P2;PMS_P1;PMS_P2;Temp;Humidity;BMP_temperature;BMP_pressure;BME280_temperature;BME280_humidity;BME280_pressure;Samples;Min_cycle;Max_cycle;Signal;HPM_P1;HPM_P2
2023/03/26 00:01:09;;;;;;;1.85;0.70;;;9.20;99.90;;;;;;5044428;28;20044;-81
2023/03/26 00:03:37;;;;;;;2.22;0.80;;;9.20;99.90;;;;;;5061470;28;20422;-81
2023/03/26 00:06:12;;;;;;;1.80;0.80;;;9.20;99.90;;;;;;5060983;28;20071;-81
2023/03/26 00:08:40;;;;;;;2.10;1.10;;;9.20;99.90;;;;;;5059085;28;20040;-80
2023/03/26 00:11:08;;;;;;;4.53;1.10;;;9.20;99.90;;;;;;5075479;28;20112;-81
2023/03/26 00:13:35;;;;;;;3.35;0.80;;;9.20;99.90;;;;;;5070158;28;20048;-80
2023/03/26 00:16:02;;;;;;;1.55;0.75;;;9.20;99.90;;;;;;5078424;28;20058;-81
2023/03/26 00:18:30;;;;;;;2.55;0.75;;;9.20;99.90;;;;;;5055043;28;20063;-81
2023/03/26 00:20:57;;;;;;;2.70;1.02;;;9.20;99.90;;;;;;5061983;28;20071;-80
2023/03/26 00:23:25;;;;;;;0.85;0.70;;;9.20;99.90;;;;;;5043312;28;20053;-81
2023/03/26 00:25:53;;;;;;;2.45;0.70;;;9.20;99.90;;;;;;5062622;28;20067;-81
2023/03/26 00:28:21;;;;;;;3.03;0.82;;;9.20;99.90;;;;;;5078635;28;20059;-81
2023/03/26 00:30:49;;;;;;;2.92;0.90;;;9.20;99.90;;;;;;5061394;28;20229;-81
2023/03/26 00:33:16;;;;;;;3.67;0.88;;;9.10;99.90;;;;;;5061200;28;20072;-80
2023/03/26 00:35:45;;;;;;;3.08;1.08;;;9.10;99.90;;;;;;5060768;28;20668;-80
2023/03/26 00:38:13;;;;;;;1.65;0.70;;;9.10;99.90;;;;;;5046406;28;20052;-81
2023/03/26 00:40:46;;;;;;;3.30;0.80;;;9.10;99.90;;;;;;5044875;28;20391;-81
2023/03/26 00:43:19;;;;;;;2.03;0.80;;;9.10;99.90;;;;;;5059243;28;20046;-81
2023/03/26 00:45:51;;;;;;;1.30;0.60;;;9.10;99.90;;;;;;5047352;28;20062;-81
2023/03/26 00:48:19;;;;;;;3.03;1.00;;;9.00;99.90;;;;;;5062999;28;20052;-80
2023/03/26 00:51:00;;;;;;;3.67;1.00;;;9.00;99.90;;;;;;5064632;28;20056;-81
2023/03/26 00:53:27;;;;;;;1.85;0.77;;;9.00;99.90;;;;;;5041468;28;20064;-81
2023/03/26 00:55:59;;;;;;;2.00;0.80;;;9.00;99.90;;;;;;5058677;28;20044;-81
2023/03/26 00:58:26;;;;;;;4.15;0.90;;;9.00;99.90;;;;;;5057934;28;20079;-81
2023/03/26 01:00:57;;;;;;;1.95;1.00;;;9.00;99.90;;;;;;5054555;28;20502;-80
2023/03/26 01:03:27;;;;;;;1.85;0.80;;;9.00;99.90;;;;;;5042813;28;20421;-81
2023/03/26 01:06:03;;;;;;;1.15;0.70;;;9.10;99.90;;;;;;5057702;28;20052;-81
2023/03/26 01:08:59;;;;;;;1.95;0.90;;;9.10;99.90;;;;;;5042403;28;20060;-79
2023/03/26 01:11:31;;;;;;;2.78;0.90;;;9.10;99.90;;;;;;5039530;28;20066;-80
2023/03/26 01:14:08;;;;;;;1.55;0.70;;;9.10;99.90;;;;;;5041758;28;20058;-81
2023/03/26 01:16:46;;;;;;;1.70;0.98;;;9.10;99.90;;;;;;5025988;28;20334;-81
2023/03/26 01:19:43;;;;;;;3.72;0.88;;;9.10;99.90;;;;;;5057137;28;20055;-81
2023/03/26 01:22:15;;;;;;;2.22;1.17;;;9.10;99.90;;;;;;5055825;28;20313;-81
2023/03/26 01:24:44;;;;;;;1.52;0.60;;;9.10;99.90;;;;;;5074755;28;20134;-80
2023/03/26 01:27:17;;;;;;;1.70;0.95;;;9.10;99.90;;;;;;5041343;28;20696;-81
2023/03/26 01:30:16;;;;;;;2.53;0.80;;;9.10;99.90;;;;;;5058202;28;20061;-81
2023/03/26 01:32:54;;;;;;;0.85;0.55;;;9.10;99.90;;;;;;5057050;28;20048;-80
2023/03/26 01:36:00;;;;;;;1.83;1.00;;;9.10;99.90;;;;;;5052554;28;20067;-80
2023/03/26 01:38:48;;;;;;;1.40;0.63;;;9.10;99.90;;;;;;5060243;28;20055;-80
2023/03/26 01:41:31;;;;;;;1.65;0.85;;;9.10;99.90;;;;;;5057937;28;20102;-79
2023/03/26 01:44:08;;;;;;;2.10;0.77;;;9.20;99.90;;;;;;5046564;28;20379;-80
2023/03/26 01:46:35;;;;;;;2.55;0.90;;;9.10;99.90;;;;;;5044511;28;20048;-79
2023/03/26 01:49:03;;;;;;;1.90;0.75;;;9.10;99.90;;;;;;5056286;28;20075;-79
2023/03/26 01:51:32;;;;;;;4.55;0.98;;;9.10;99.90;;;;;;5057063;28;20045;-80
2023/03/26 01:53:59;;;;;;;2.45;0.85;;;9.10;99.90;;;;;;5048339;28;20072;-80
2023/03/26 01:56:28;;;;;;;3.63;1.27;;;9.10;99.90;;;;;;5065377;28;20759;-81
2023/03/26 01:59:02;;;;;;;1.58;0.80;;;9.10;99.90;;;;;;5081927;28;20059;-80
2023/03/26 02:01:43;;;;;;;1.33;0.77;;;9.20;99.90;;;;;;5069019;28;20048;-80
2023/03/26 02:04:38;;;;;;;2.75;0.60;;;9.20;99.90;;;;;;5068231;28;20054;-80
2023/03/26 02:07:24;;;;;;;1.65;0.43;;;9.20;99.90;;;;;;5050609;28;20045;-81
2023/03/26 02:09:57;;;;;;;1.80;0.93;;;9.20;99.90;;;;;;5054291;28;20059;-80
2023/03/26 02:12:24;;;;;;;2.28;1.25;;;9.30;99.90;;;;;;5052406;28;20118;-80
2023/03/26 02:14:51;;;;;;;2.40;0.90;;;9.30;99.90;;;;;;5055684;28;20059;-81
2023/03/26 02:17:22;;;;;;;2.20;0.55;;;9.30;99.90;;;;;;5051570;28;20445;-80
2023/03/26 02:19:50;;;;;;;2.78;0.70;;;9.30;99.90;;;;;;5067714;28;20052;-80
2023/03/26 02:22:17;;;;;;;1.45;0.60;;;9.30;99.90;;;;;;5061873;28;20128;-80
2023/03/26 02:24:44;;;;;;;2.55;0.90;;;9.40;99.90;;;;;;5063532;28;20230;-80
2023/03/26 02:27:11;;;;;;;2.15;0.77;;;9.40;99.90;;;;;;5075548;28;20040;-81
2023/03/26 02:29:42;;;;;;;4.45;1.00;;;9.40;99.90;;;;;;5069060;28;20044;-80
2023/03/26 02:32:12;;;;;;;1.15;0.60;;;9.40;99.90;;;;;;5053583;28;20151;-81
2023/03/26 02:34:40;;;;;;;2.85;0.60;;;9.40;99.90;;;;;;5051094;28;20067;-80
2023/03/26 02:37:07;;;;;;;2.25;0.70;;;9.40;99.90;;;;;;5048943;28;20047;-80
2023/03/26 02:39:34;;;;;;;1.60;0.73;;;9.40;99.90;;;;;;5068632;28;20063;-80
2023/03/26 02:42:01;;;;;;;1.20;0.80;;;9.40;99.90;;;;;;5067253;28;20113;-80
2023/03/26 02:44:27;;;;;;;2.25;1.20;;;9.40;99.90;;;;;;5062277;28;20614;-80
2023/03/26 02:46:54;;;;;;;1.70;0.60;;;9.40;99.90;;;;;;5065851;28;20805;-80
2023/03/26 02:49:21;;;;;;;1.50;0.80;;;9.40;99.90;;;;;;5050512;28;20162;-81
2023/03/26 02:51:48;;;;;;;0.55;0.50;;;9.40;99.90;;;;;;5047974;28;20499;-81
2023/03/26 02:54:15;;;;;;;1.67;0.73;;;9.40;99.90;;;;;;5037469;28;20131;-80
2023/03/26 02:56:42;;;;;;;2.05;0.70;;;9.50;99.90;;;;;;5043063;28;20568;-80
2023/03/26 02:59:09;;;;;;;2.85;0.63;;;9.50;99.90;;;;;;5023463;28;20059;-81
2023/03/26 03:01:41;;;;;;;1.13;0.50;;;9.50;99.90;;;;;;5042503;28;20041;-80
2023/03/26 03:04:11;;;;;;;1.00;0.40;;;9.50;99.90;;;;;;5041619;28;20542;-81
2023/03/26 03:06:39;;;;;;;1.08;0.50;;;9.50;99.90;;;;;;5012928;28;20460;-80
2023/03/26 03:09:09;;;;;;;0.47;0.35;;;9.50;99.90;;;;;;5011696;28;20049;-80
2023/03/26 03:11:39;;;;;;;0.63;0.50;;;9.50;99.90;;;;;;5041324;28;20051;-80
2023/03/26 03:14:06;;;;;;;1.02;0.43;;;9.50;99.90;;;;;;5042724;28;20059;-81
2023/03/26 03:16:33;;;;;;;1.23;0.40;;;9.50;99.90;;;;;;5041070;28;20076;-80
2023/03/26 03:19:00;;;;;;;0.30;0.28;;;9.50;99.90;;;;;;5037394;28;20499;-80
2023/03/26 03:21:27;;;;;;;1.13;0.47;;;9.50;99.90;;;;;;5027019;28;20057;-81
2023/03/26 03:23:55;;;;;;;0.60;0.50;;;9.50;99.90;;;;;;5043710;28;20072;-80
2023/03/26 03:26:29;;;;;;;1.20;0.50;;;9.50;99.90;;;;;;5039828;28;20136;-80
2023/03/26 03:28:56;;;;;;;0.52;0.38;;;9.50;99.90;;;;;;5034441;28;20045;-80
2023/03/26 03:31:24;;;;;;;0.63;0.50;;;9.50;99.90;;;;;;5040393;28;20067;-80
2023/03/26 03:33:51;;;;;;;0.32;0.30;;;9.50;99.90;;;;;;5023632;28;20052;-80
2023/03/26 03:36:20;;;;;;;1.58;0.60;;;9.40;99.90;;;;;;5017714;28;20137;-80
2023/03/26 03:38:48;;;;;;;2.15;0.85;;;9.50;99.90;;;;;;5036667;28;20048;-80
2023/03/26 03:41:17;;;;;;;0.45;0.30;;;9.40;99.90;;;;;;5044196;28;20087;-79
2023/03/26 03:43:44;;;;;;;0.68;0.45;;;9.40;99.90;;;;;;5025403;28;20045;-80
2023/03/26 03:46:11;;;;;;;0.65;0.47;;;9.40;99.90;;;;;;5023786;28;20049;-81
2023/03/26 03:48:38;;;;;;;0.82;0.50;;;9.40;99.90;;;;;;5018714;28;20119;-80
2023/03/26 03:51:05;;;;;;;0.57;0.30;;;9.40;99.90;;;;;;5025096;28;20053;-80
2023/03/26 03:53:35;;;;;;;0.77;0.40;;;9.40;99.90;;;;;;5022451;28;1158824;-80
2023/03/26 03:56:03;;;;;;;0.65;0.43;;;9.40;99.90;;;;;;5064425;28;20052;-80
2023/03/26 03:58:30;;;;;;;0.40;0.30;;;9.40;99.90;;;;;;5078898;28;20048;-80
2023/03/26 04:00:59;;;;;;;1.02;0.50;;;9.30;99.90;;;;;;5060244;28;20080;-79
2023/03/26 04:03:26;;;;;;;0.75;0.35;;;9.40;99.90;;;;;;5058602;28;20133;-79
2023/03/26 04:06:00;;;;;;;0.20;0.20;;;9.30;99.90;;;;;;5057087;28;20044;-80
2023/03/26 04:08:27;;;;;;;0.43;0.30;;;9.30;99.90;;;;;;5027941;28;20052;-81
2023/03/26 04:10:54;;;;;;;0.70;0.30;;;9.30;99.90;;;;;;5047034;28;20444;-80
2023/03/26 04:13:20;;;;;;;0.20;0.20;;;9.30;99.90;;;;;;5077526;28;20048;-80
2023/03/26 04:15:47;;;;;;;0.35;0.30;;;9.30;99.90;;;;;;5063531;28;20054;-81
2023/03/26 04:18:14;;;;;;;1.27;0.30;;;9.30;99.90;;;;;;5043062;28;20449;-81
2023/03/26 04:20:45;;;;;;;0.38;0.20;;;9.30;99.90;;;;;;5057167;28;20400;-81
2023/03/26 04:23:13;;;;;;;0.52;0.40;;;9.30;99.90;;;;;;5047313;28;20045;-81
2023/03/26 04:25:47;;;;;;;0.22;0.22;;;9.20;99.90;;;;;;5030216;28;20106;-81
2023/03/26 04:28:32;;;;;;;0.88;0.22;;;9.10;99.90;;;;;;5050979;28;20048;-80
2023/03/26 04:31:02;;;;;;;0.38;0.25;;;9.10;99.90;;;;;;5029101;28;20151;-81
2023/03/26 04:33:30;;;;;;;1.60;0.60;;;9.00;99.90;;;;;;5052143;28;20098;-81
2023/03/26 04:36:01;;;;;;;0.40;0.20;;;9.00;99.90;;;;;;5060702;28;20127;-80
2023/03/26 04:38:37;;;;;;;0.35;0.20;;;9.00;99.90;;;;;;5058190;28;20052;-81
2023/03/26 04:41:06;;;;;;;0.13;0.13;;;9.00;99.90;;;;;;5047608;28;20051;-81
2023/03/26 04:43:36;;;;;;;0.13;0.13;;;9.00;99.90;;;;;;5062794;28;20488;-80
2023/03/26 04:46:03;;;;;;;0.43;0.22;;;8.90;99.90;;;;;;5046515;28;20583;-80
2023/03/26 04:48:30;;;;;;;0.50;0.30;;;8.90;99.90;;;;;;5041812;28;20048;-81
2023/03/26 04:50:57;;;;;;;0.52;0.30;;;8.90;99.90;;;;;;5073165;28;20041;-81
2023/03/26 04:53:24;;;;;;;0.45;0.20;;;8.80;99.90;;;;;;5041157;28;20092;-81
2023/03/26 04:56:00;;;;;;;0.20;0.20;;;8.80;99.90;;;;;;5061986;28;20053;-81
2023/03/26 04:58:31;;;;;;;0.35;0.13;;;8.80;99.90;;;;;;5045685;28;20049;-81
2023/03/26 05:01:00;;;;;;;0.20;0.20;;;8.70;99.90;;;;;;5023412;28;20095;-81
2023/03/26 05:03:39;;;;;;;0.20;0.15;;;8.70;99.90;;;;;;5015705;28;20072;-81
2023/03/26 05:06:08;;;;;;;0.40;0.20;;;8.70;99.90;;;;;;5057436;28;20056;-81
2023/03/26 05:08:35;;;;;;;0.10;0.10;;;8.70;99.90;;;;;;5003902;28;20589;-81
2023/03/26 05:11:02;;;;;;;0.52;0.25;;;8.70;99.90;;;;;;5030389;28;20080;-81
2023/03/26 05:13:28;;;;;;;0.45;0.20;;;8.60;99.90;;;;;;5024864;28;20072;-81
2023/03/26 05:15:55;;;;;;;0.20;0.20;;;8.70;99.90;;;;;;5008932;28;20048;-81
2023/03/26 05:18:22;;;;;;;0.17;0.13;;;8.70;99.90;;;;;;5062804;28;20048;-81
2023/03/26 05:20:50;;;;;;;0.20;0.20;;;8.60;99.90;;;;;;5040671;28;20080;-81
2023/03/26 05:23:17;;;;;;;0.45;0.22;;;8.60;99.90;;;;;;5034108;28;20055;-81
2023/03/26 05:25:45;;;;;;;0.20;0.20;;;8.60;99.90;;;;;;5020510;28;20495;-81
2023/03/26 05:28:12;;;;;;;1.00;0.40;;;8.50;99.90;;;;;;5027229;28;20500;-81
2023/03/26 05:30:42;;;;;;;0.20;0.20;;;8.50;99.90;;;;;;5050802;28;20131;-81
2023/03/26 05:33:09;;;;;;;0.43;0.25;;;8.40;99.90;;;;;;5031333;28;20045;-81
2023/03/26 05:35:36;;;;;;;0.35;0.20;;;8.40;99.90;;;;;;5036539;28;20127;-82
2023/03/26 05:38:03;;;;;;;0.30;0.20;;;8.30;99.90;;;;;;5046008;28;20183;-82
2023/03/26 05:40:30;;;;;;;0.22;0.22;;;8.30;99.90;;;;;;5059649;28;20044;-82
2023/03/26 05:42:57;;;;;;;0.13;0.10;;;8.30;99.90;;;;;;5032872;28;20045;-81
2023/03/26 05:45:24;;;;;;;0.47;0.22;;;8.30;99.90;;;;;;5053375;28;20048;-82
2023/03/26 05:47:53;;;;;;;0.30;0.30;;;8.30;99.90;;;;;;5023078;28;20045;-81
2023/03/26 05:50:20;;;;;;;0.30;0.30;;;8.20;99.90;;;;;;5007685;28;20400;-82
2023/03/26 05:52:49;;;;;;;0.20;0.20;;;8.20;99.90;;;;;;5036844;28;20057;-82
2023/03/26 05:55:17;;;;;;;0.15;0.15;;;8.10;99.90;;;;;;5021789;28;20204;-82
2023/03/26 05:57:44;;;;;;;0.25;0.15;;;8.10;99.90;;;;;;5020125;28;20076;-81
2023/03/26 06:00:11;;;;;;;0.20;0.10;;;8.10;99.90;;;;;;5021386;28;20075;-82
2023/03/26 06:02:38;;;;;;;0.30;0.20;;;8.00;99.90;;;;;;5000441;28;20061;-83
2023/03/26 06:05:06;;;;;;;0.20;0.20;;;7.90;99.90;;;;;;5017319;28;20133;-83
2023/03/26 06:07:33;;;;;;;0.30;0.30;;;7.90;99.90;;;;;;5014452;28;20045;-84
2023/03/26 06:10:01;;;;;;;0.25;0.20;;;7.80;99.90;;;;;;5005076;28;20506;-83
2023/03/26 06:12:28;;;;;;;0.20;0.20;;;7.80;99.90;;;;;;5004317;28;20875;-84
2023/03/26 06:14:55;;;;;;;0.20;0.20;;;7.80;99.90;;;;;;4999523;28;20136;-83
2023/03/26 06:17:22;;;;;;;0.80;0.30;;;7.70;99.90;;;;;;5001071;28;20100;-84
2023/03/26 06:19:49;;;;;;;0.40;0.30;;;7.60;99.90;;;;;;5003905;28;20055;-85
2023/03/26 06:22:16;;;;;;;0.40;0.30;;;7.60;99.90;;;;;;5005854;28;20555;-83
2023/03/26 06:24:43;;;;;;;0.35;0.30;;;7.50;99.90;;;;;;5018235;28;20131;-84
2023/03/26 06:27:10;;;;;;;0.22;0.20;;;7.50;99.90;;;;;;5005702;28;20110;-84
2023/03/26 06:29:37;;;;;;;0.38;0.25;;;7.40;99.90;;;;;;5002814;28;20052;-82
2023/03/26 06:32:04;;;;;;;0.17;0.17;;;7.40;99.90;;;;;;5005287;28;20469;-84
2023/03/26 06:34:45;;;;;;;0.30;0.20;;;7.40;99.90;;;;;;5006160;28;20644;-84
2023/03/26 06:37:12;;;;;;;0.38;0.25;;;7.50;99.90;;;;;;5002758;28;20115;-83
2023/03/26 06:39:39;;;;;;;0.15;0.15;;;7.50;99.90;;;;;;5005714;28;20049;-89
2023/03/26 06:42:06;;;;;;;0.93;0.30;;;7.50;99.90;;;;;;5047164;28;20045;-90
2023/03/26 06:44:33;;;;;;;0.40;0.40;;;7.50;99.90;;;;;;5025682;28;20091;-90
2023/03/26 06:47:00;;;;;;;0.57;0.30;;;7.50;99.90;;;;;;5035118;28;20055;-94
2023/03/26 06:49:27;;;;;;;0.10;0.10;;;7.50;99.90;;;;;;5025587;28;20088;-91
2023/03/26 06:51:54;;;;;;;0.32;0.30;;;7.50;99.90;;;;;;5035891;28;20080;-91
2023/03/26 06:54:22;;;;;;;0.20;0.20;;;7.60;99.90;;;;;;5031733;28;20056;-93
2023/03/26 06:56:49;;;;;;;0.90;0.43;;;7.50;99.90;;;;;;5049376;28;20114;-91
2023/03/26 06:59:16;;;;;;;0.32;0.30;;;7.50;99.90;;;;;;5031856;28;20135;-91
2023/03/26 07:01:43;;;;;;;0.73;0.50;;;7.50;99.90;;;;;;5031846;28;20056;-93
2023/03/26 07:04:12;;;;;;;0.70;0.40;;;7.50;99.90;;;;;;5044624;28;20522;-91
2023/03/26 07:06:39;;;;;;;1.17;0.63;;;7.50;99.90;;;;;;5031449;28;20059;-89
2023/03/26 07:09:06;;;;;;;0.75;0.43;;;7.50;99.90;;;;;;5031666;28;20068;-90
2023/03/26 07:11:33;;;;;;;2.58;0.70;;;7.40;99.90;;;;;;5060404;28;20048;-90
2023/03/26 07:14:00;;;;;;;0.80;0.43;;;7.50;99.90;;;;;;5030690;28;20044;-91
2023/03/26 07:16:27;;;;;;;1.05;0.93;;;7.50;99.90;;;;;;5030846;28;20103;-89
2023/03/26 07:18:54;;;;;;;0.30;0.30;;;7.60;99.90;;;;;;5031796;28;20052;-91
2023/03/26 07:21:22;;;;;;;1.52;0.40;;;7.60;99.90;;;;;;5049635;28;20053;-90
2023/03/26 07:23:52;;;;;;;0.47;0.40;;;7.60;99.90;;;;;;5030020;28;20152;-90
2023/03/26 07:26:26;;;;;;;0.50;0.40;;;7.60;99.90;;;;;;5052264;28;20536;-91
2023/03/26 07:29:07;;;;;;;0.50;0.30;;;7.60;99.90;;;;;;5048407;28;20055;-92
2023/03/26 07:32:00;;;;;;;0.75;0.30;;;7.60;99.90;;;;;;5048974;28;20128;-93
2023/03/26 07:34:34;;;;;;;2.03;0.68;;;7.60;99.90;;;;;;5070425;28;20056;-91
2023/03/26 07:37:25;;;;;;;0.47;0.35;;;7.50;99.90;;;;;;5064139;28;20259;-90
2023/03/26 07:40:00;;;;;;;0.50;0.40;;;7.50;99.90;;;;;;5047950;28;20824;-89
2023/03/26 07:42:27;;;;;;;1.33;0.43;;;7.40;99.90;;;;;;5022629;28;20053;-87
2023/03/26 07:45:02;;;;;;;0.55;0.40;;;7.40;99.90;;;;;;5062765;28;20086;-89
2023/03/26 07:47:32;;;;;;;0.77;0.50;;;7.40;99.90;;;;;;5023715;28;20053;-90
2023/03/26 07:50:00;;;;;;;0.68;0.45;;;7.40;99.90;;;;;;5022787;28;20127;-89
2023/03/26 07:52:27;;;;;;;0.52;0.40;;;7.50;99.90;;;;;;5024603;28;20185;-91
2023/03/26 07:54:55;;;;;;;0.65;0.30;;;7.40;99.90;;;;;;5025253;28;20583;-89
2023/03/26 07:57:46;;;;;;;0.63;0.40;;;7.50;99.90;;;;;;5023824;28;20079;-91
2023/03/26 08:00:35;;;;;;;0.50;0.40;;;7.50;99.90;;;;;;5055439;28;20052;-90
2023/03/26 08:03:21;;;;;;;0.22;0.20;;;7.60;99.90;;;;;;5067861;28;20076;-92
2023/03/26 08:06:00;;;;;;;0.57;0.55;;;7.60;99.90;;;;;;5055921;28;20084;-89
2023/03/26 08:08:44;;;;;;;0.77;0.40;;;7.60;99.90;;;;;;5052139;28;20106;-90
2023/03/26 08:11:39;;;;;;;0.30;0.30;;;7.60;99.90;;;;;;5074590;28;20212;-89
2023/03/26 08:14:12;;;;;;;0.65;0.40;;;7.60;99.90;;;;;;5051086;28;20048;-90
2023/03/26 08:16:47;;;;;;;1.40;0.65;;;7.60;99.90;;;;;;5065748;28;20168;-89
2023/03/26 08:19:33;;;;;;;1.70;0.40;;;7.60;99.90;;;;;;5069145;28;20047;-91
2023/03/26 08:22:16;;;;;;;0.75;0.40;;;7.60;99.90;;;;;;5024700;28;20060;-90
2023/03/26 08:25:00;;;;;;;0.38;0.28;;;7.50;99.90;;;;;;5042746;28;20102;-87
2023/03/26 08:27:39;;;;;;;0.73;0.50;;;7.50;99.90;;;;;;5036465;28;20125;-89
2023/03/26 08:30:18;;;;;;;0.70;0.30;;;7.50;99.90;;;;;;5038628;28;20770;-86
2023/03/26 08:32:55;;;;;;;0.73;0.40;;;7.50;99.90;;;;;;5022178;28;20146;-90
2023/03/26 08:35:23;;;;;;;1.30;0.60;;;7.50;99.90;;;;;;5038107;28;20040;-87
2023/03/26 08:37:50;;;;;;;0.40;0.30;;;7.50;99.90;;;;;;5034634;28;20135;-89
2023/03/26 08:40:30;;;;;;;0.68;0.40;;;7.60;99.90;;;;;;5023447;28;20059;-89
2023/03/26 08:43:27;;;;;;;0.75;0.40;;;7.60;99.90;;;;;;5024999;28;20051;-89
2023/03/26 08:46:09;;;;;;;1.23;0.47;;;7.70;99.90;;;;;;5057246;28;20091;-89
2023/03/26 08:48:55;;;;;;;0.93;0.60;;;7.70;99.90;;;;;;5056624;28;20084;-92
2023/03/26 08:51:41;;;;;;;0.40;0.40;;;7.70;99.90;;;;;;5052884;28;20487;-92
2023/03/26 08:54:42;;;;;;;0.82;0.60;;;7.70;99.90;;;;;;5055086;28;20057;-90
2023/03/26 08:57:31;;;;;;;1.88;1.05;;;7.80;99.90;;;;;;5056113;28;20105;-89
2023/03/26 09:00:12;;;;;;;0.52;0.40;;;7.60;99.90;;;;;;5044755;28;20494;-93
2023/03/26 09:03:15;;;;;;;0.98;0.50;;;7.70;99.90;;;;;;5043608;28;20392;-93
2023/03/26 09:05:49;;;;;;;1.05;0.50;;;7.70;99.90;;;;;;5074194;28;20148;-93
2023/03/26 09:08:44;;;;;;;0.47;0.45;;;7.70;99.90;;;;;;5062010;28;20060;-92
2023/03/26 09:11:51;;;;;;;0.47;0.47;;;7.70;99.90;;;;;;5057276;28;20062;-90
2023/03/26 09:14:29;;;;;;;0.85;0.50;;;7.80;99.90;;;;;;5046316;28;20062;-90
2023/03/26 09:17:54;;;;;;;0.60;0.40;;;7.80;99.90;;;;;;5060936;28;20115;-89
2023/03/26 09:20:55;;;;;;;1.85;0.65;;;7.80;99.90;;;;;;4977603;28;20050;-90
2023/03/26 09:24:00;;;;;;;0.93;0.60;;;7.80;99.90;;;;;;4964534;28;20050;-93
2023/03/26 09:26:46;;;;;;;0.68;0.50;;;7.80;99.90;;;;;;5057533;28;20080;-85
2023/03/26 09:29:40;;;;;;;0.57;0.35;;;7.80;99.90;;;;;;5057333;28;20048;-85
2023/03/26 09:32:19;;;;;;;0.80;0.45;;;7.90;99.90;;;;;;5048705;28;20912;-87
2023/03/26 09:35:20;;;;;;;1.05;0.90;;;7.90;99.90;;;;;;5091874;28;20070;-86
2023/03/26 09:37:50;;;;;;;1.13;0.65;;;8.00;99.90;;;;;;5037128;28;20086;-87
2023/03/26 09:40:36;;;;;;;1.15;0.40;;;8.10;99.90;;;;;;5050345;28;20513;-87
2023/03/26 09:43:25;;;;;;;0.82;0.50;;;8.10;99.90;;;;;;5062882;28;20581;-87
2023/03/26 09:46:14;;;;;;;0.65;0.40;;;8.20;99.90;;;;;;5046614;28;20517;-87
2023/03/26 09:48:56;;;;;;;0.43;0.40;;;8.20;99.90;;;;;;5077406;28;20040;-86
2023/03/26 09:51:41;;;;;;;0.90;0.65;;;8.30;99.90;;;;;;5086431;28;20048;-86
2023/03/26 09:54:17;;;;;;;0.47;0.47;;;8.30;99.90;;;;;;5063725;28;20555;-86
2023/03/26 09:56:57;;;;;;;0.80;0.52;;;8.30;99.90;;;;;;5064967;28;20580;-87
2023/03/26 10:00:03;;;;;;;0.82;0.60;;;8.40;99.90;;;;;;5056392;28;20052;-87
2023/03/26 10:02:58;;;;;;;0.50;0.40;;;8.50;99.90;;;;;;5065181;28;20052;-87
2023/03/26 10:05:33;;;;;;;0.50;0.50;;;8.70;99.90;;;;;;5044247;28;20147;-87
2023/03/26 10:08:31;;;;;;;0.75;0.55;;;8.80;99.90;;;;;;5060175;28;20052;-86
2023/03/26 10:11:15;;;;;;;0.35;0.35;;;9.00;99.90;;;;;;5051450;28;20449;-87
2023/03/26 10:13:42;;;;;;;0.70;0.40;;;9.00;99.90;;;;;;5050527;28;20198;-88
2023/03/26 10:16:24;;;;;;;0.63;0.50;;;9.00;99.90;;;;;;5066136;28;20055;-88
2023/03/26 10:19:16;;;;;;;0.88;0.77;;;9.10;99.90;;;;;;5047953;28;20048;-88
2023/03/26 10:22:21;;;;;;;0.98;0.68;;;9.20;99.90;;;;;;5068321;28;20477;-88
2023/03/26 10:25:07;;;;;;;1.13;0.60;;;9.30;99.90;;;;;;5030762;28;20163;-88
2023/03/26 10:27:54;;;;;;;1.40;0.80;;;9.40;99.90;;;;;;5070097;28;20507;-87
2023/03/26 10:30:33;;;;;;;0.70;0.50;;;9.50;99.90;;;;;;5045883;28;20052;-88
2023/03/26 10:33:09;;;;;;;1.27;0.68;;;9.40;99.90;;;;;;5067641;28;20052;-89
2023/03/26 10:36:21;;;;;;;0.75;0.60;;;9.50;99.90;;;;;;5065623;28;20148;-89
2023/03/26 10:38:55;;;;;;;0.55;0.43;;;9.50;99.90;;;;;;5081690;28;20337;-89
2023/03/26 10:41:49;;;;;;;0.52;0.52;;;9.50;99.90;;;;;;5069882;28;20163;-89
2023/03/26 10:44:26;;;;;;;0.57;0.40;;;9.60;99.90;;;;;;5066297;28;20058;-88
2023/03/26 10:47:17;;;;;;;0.93;0.77;;;9.60;99.90;;;;;;5051031;28;20415;-88
2023/03/26 10:49:55;;;;;;;0.60;0.57;;;9.60;99.90;;;;;;5066157;28;20158;-90
2023/03/26 10:52:49;;;;;;;0.43;0.43;;;9.60;99.90;;;;;;5040588;28;20056;-90
2023/03/26 10:55:31;;;;;;;0.50;0.50;;;9.60;99.90;;;;;;5034914;28;20040;-90
2023/03/26 10:58:09;;;;;;;0.82;0.40;;;9.70;99.90;;;;;;5036717;28;20052;-89
2023/03/26 11:00:38;;;;;;;0.50;0.30;;;9.70;99.90;;;;;;5036647;28;20153;-90
2023/03/26 11:03:53;;;;;;;0.73;0.50;;;9.70;99.90;;;;;;5035583;28;20523;-93
2023/03/26 11:06:44;;;;;;;1.48;0.88;;;9.80;99.90;;;;;;5037834;28;20055;-91
2023/03/26 11:09:24;;;;;;;0.98;0.60;;;9.80;99.90;;;;;;5051272;28;20341;-91
2023/03/26 11:12:00;;;;;;;0.57;0.50;;;9.90;99.90;;;;;;5051532;28;20207;-92
2023/03/26 11:14:49;;;;;;;0.50;0.40;;;9.90;99.90;;;;;;5049449;28;20052;-92
2023/03/26 11:17:33;;;;;;;0.68;0.35;;;10.00;99.90;;;;;;5067142;28;20075;-92
2023/03/26 11:20:09;;;;;;;1.05;0.70;;;10.10;99.90;;;;;;5035152;28;20056;-91
2023/03/26 11:23:04;;;;;;;0.60;0.40;;;10.10;99.90;;;;;;5047926;28;20049;-90
2023/03/26 11:25:40;;;;;;;1.73;0.68;;;10.20;99.90;;;;;;5063673;28;20145;-92
2023/03/26 11:28:20;;;;;;;0.80;0.65;;;10.30;99.90;;;;;;5066032;28;20630;-93
2023/03/26 11:31:20;;;;;;;0.65;0.50;;;10.30;99.90;;;;;;5096850;28;20052;-92
2023/03/26 11:33:50;;;;;;;0.68;0.43;;;10.40;99.90;;;;;;5073104;28;20474;-86
2023/03/26 11:36:22;;;;;;;0.82;0.70;;;10.40;99.90;;;;;;5032978;28;20066;-84
2023/03/26 11:38:49;;;;;;;0.55;0.50;;;10.30;99.90;;;;;;5033135;28;20040;-87
2023/03/26 11:41:25;;;;;;;0.85;0.40;;;10.30;99.90;;;;;;5057938;28;20043;-85
2023/03/26 11:43:55;;;;;;;0.60;0.45;;;10.30;99.90;;;;;;5056892;28;20148;-85
2023/03/26 11:46:22;;;;;;;0.80;0.60;;;10.40;99.90;;;;;;5041884;28;20125;-81
2023/03/26 11:48:58;;;;;;;0.55;0.50;;;10.60;99.90;;;;;;5025702;28;20048;-84
2023/03/26 11:51:33;;;;;;;0.40;0.35;;;10.80;99.90;;;;;;5072208;28;20063;-83
2023/03/26 11:54:01;;;;;;;0.77;0.60;;;11.00;99.90;;;;;;5058245;28;20578;-82
2023/03/26 11:56:40;;;;;;;0.57;0.50;;;11.10;99.90;;;;;;5059528;28;20132;-83
2023/03/26 11:59:49;;;;;;;2.38;1.42;;;11.40;99.90;;;;;;5060479;28;20056;-86
2023/03/26 12:02:28;;;;;;;2.15;1.35;;;11.50;99.90;;;;;;5033153;28;20050;-85
2023/03/26 12:05:19;;;;;;;2.20;1.40;;;11.70;99.90;;;;;;5058825;28;20452;-83
2023/03/26 12:07:57;;;;;;;1.20;0.70;;;11.60;99.90;;;;;;5037621;28;20058;-84
2023/03/26 12:10:38;;;;;;;1.73;0.82;;;11.30;99.90;;;;;;5023369;28;20117;-83
2023/03/26 12:13:20;;;;;;;0.50;0.45;;;11.10;99.90;;;;;;5054062;28;20135;-86
2023/03/26 12:15:47;;;;;;;1.30;0.60;;;10.80;99.90;;;;;;5055091;28;21395;-84
2023/03/26 12:18:25;;;;;;;0.95;0.45;;;10.70;99.90;;;;;;5039169;28;20916;-85
2023/03/26 12:21:18;;;;;;;1.08;0.50;;;10.50;99.90;;;;;;5043373;28;20085;-79
2023/03/26 12:24:03;;;;;;;1.65;0.50;;;10.40;99.90;;;;;;5071604;28;20055;-79
2023/03/26 12:26:47;;;;;;;0.52;0.38;;;10.20;99.90;;;;;;5054457;28;20056;-79
2023/03/26 12:29:16;;;;;;;0.43;0.38;;;10.20;99.90;;;;;;5053295;28;20481;-80
2023/03/26 12:32:01;;;;;;;0.52;0.35;;;10.20;99.90;;;;;;5053770;28;20059;-80
2023/03/26 12:34:30;;;;;;;1.30;0.60;;;10.20;99.90;;;;;;5071722;28;20088;-80
2023/03/26 12:37:00;;;;;;;1.25;0.95;;;10.20;99.90;;;;;;5041219;28;20137;-79
2023/03/26 12:39:29;;;;;;;1.33;0.82;;;10.20;99.90;;;;;;5069158;28;20050;-80
2023/03/26 12:42:29;;;;;;;0.95;0.52;;;10.30;99.90;;;;;;5070876;28;20362;-81
2023/03/26 12:45:16;;;;;;;0.50;0.45;;;10.30;99.90;;;;;;5073619;28;20047;-80
2023/03/26 12:47:42;;;;;;;0.95;0.40;;;10.10;99.90;;;;;;5040421;28;20136;-79
2023/03/26 12:50:50;;;;;;;1.08;0.60;;;9.90;99.90;;;;;;5053420;28;20612;-78
2023/03/26 12:53:36;;;;;;;0.63;0.40;;;9.80;99.90;;;;;;5071681;28;20088;-79
2023/03/26 12:56:37;;;;;;;1.90;0.70;;;9.80;99.90;;;;;;5073504;28;20079;-78
2023/03/26 12:59:14;;;;;;;2.15;0.75;;;9.70;99.90;;;;;;5053262;28;20214;-79
2023/03/26 13:02:00;;;;;;;2.05;0.75;;;9.70;99.90;;;;;;5053577;28;20132;-78
2023/03/26 13:04:54;;;;;;;0.55;0.47;;;9.80;99.90;;;;;;5071539;28;20059;-79
2023/03/26 13:07:50;;;;;;;0.68;0.50;;;10.00;99.90;;;;;;5041776;28;20044;-79
2023/03/26 13:10:36;;;;;;;2.65;0.95;;;10.00;99.90;;;;;;5054562;28;20606;-79
2023/03/26 13:13:15;;;;;;;2.33;1.05;;;9.80;99.90;;;;;;5054991;28;20048;-78
2023/03/26 13:15:45;;;;;;;4.38;1.85;;;9.70;99.90;;;;;;5074329;28;20059;-79
2023/03/26 13:18:40;;;;;;;4.95;2.75;;;9.60;99.90;;;;;;5074295;28;20052;-79
2023/03/26 13:21:58;;;;;;;5.22;2.22;;;9.60;99.90;;;;;;5071764;28;20047;-80
2023/03/26 13:24:47;;;;;;;2.67;1.60;;;9.60;99.90;;;;;;5025595;28;20047;-79
2023/03/26 13:27:39;;;;;;;3.60;1.60;;;9.70;99.90;;;;;;5056133;28;20068;-79
2023/03/26 13:30:18;;;;;;;3.55;1.35;;;9.60;99.90;;;;;;5070128;28;20051;-79
2023/03/26 13:32:57;;;;;;;6.85;1.55;;;9.50;99.90;;;;;;5070207;28;20047;-79
2023/03/26 13:35:34;;;;;;;5.63;2.00;;;9.30;99.90;;;;;;5070796;28;20044;-79
2023/03/26 13:38:12;;;;;;;4.93;1.83;;;9.00;99.90;;;;;;5056581;28;20554;-80
2023/03/26 13:40:54;;;;;;;6.30;1.75;;;9.00;99.90;;;;;;5059434;28;20173;-80